Flight Track Log - Related Links

Times and Time Zones

All times are in EDT time to prevent confusion due to time zone crossing. See the ASA630 flight status page for this flight to view local times or setup timezone preferences in your user account.

Time Position Orientation Groundspeed Altitude Reporting Facility
EDT Latitude Longitude Course Direction KTS MPH feet Rate Location/Type
Mon 10:47:47 PM 47.4378 -122.3122 180° South 174 200 1,600  Level Seattle Center
Mon 10:48:33 PM 47.3975 -122.3125 180° South 187 215 3,600 2,579 Climbing Seattle Center
Mon 10:49:34 PM 47.3289 -122.3106 179° South 246 283 6,200 2,852 Climbing Seattle Center
Mon 10:50:35 PM 47.2558 -122.2853 167° South 272 313 9,400 2,557 Climbing Seattle Center
Mon 10:51:36 PM 47.1775 -122.2478 162° South 305 351 11,400 1,967 Climbing Seattle Center
Mon 10:52:37 PM 47.0822 -122.2022 162° South 364 419 13,400 2,380 Climbing Seattle Center
Mon 10:53:37 PM 46.9769 -122.1556 163° South 399 459 16,200 2,678 Climbing Seattle Center
Mon 10:54:38 PM 46.8656 -122.1050 163° South 424 488 18,800 2,508 Climbing Seattle Center
Mon 10:55:39 PM 46.7500 -122.0522 163° South 437 503 21,300 2,213 Climbing Seattle Center
Mon 10:56:40 PM 46.6042 -121.9761 160° South 471 542 23,300 1,623 Climbing Seattle Center
Mon 10:57:41 PM 46.4822 -121.8597 147° Southeast 523 602 24,600 1,686 Climbing Seattle Center
Mon 10:58:41 PM 46.3600 -121.7361 145° Southeast 540 621 26,700 1,884 Climbing Seattle Center
Mon 10:59:42 PM 46.2353 -121.6133 146° Southeast 546 628 28,400 1,475 Climbing Seattle Center
Mon 11:00:43 PM 46.1139 -121.4856 144° Southeast 555 639 29,700 1,525 Climbing Seattle Center
Mon 11:01:44 PM 45.9833 -121.3606 146° Southeast 563 648 31,500 1,770 Climbing Seattle Center
Mon 11:02:45 PM 45.8533 -121.2344 146° Southeast 566 651 33,300 1,636 Climbing Seattle Center
Mon 11:03:45 PM 45.7239 -121.1117 146° Southeast 561 646 34,800 1,835 Climbing Seattle Center
Mon 11:04:46 PM 45.5944 -121.0022 149° Southeast 546 628 37,000 1,770 Climbing Seattle Center
Mon 11:05:47 PM 45.4700 -120.8972 149° Southeast 527 606 38,400 934 Climbing Seattle Center
Mon 11:06:48 PM 45.3206 -120.7717 149° Southeast 522 601 38,900 295 Climbing Seattle Center
Mon 11:07:49 PM 45.1942 -120.6672 150° Southeast 528 608 39,000 50 Climbing Seattle Center
Mon 11:08:49 PM 45.0683 -120.5622 149° Southeast 529 609 39,000  Level Seattle Center
Mon 11:09:50 PM 44.9433 -120.4586 150° Southeast 527 606 39,000  Level Seattle Center
Mon 11:10:51 PM 44.8192 -120.3544 149° Southeast 528 608 39,000  Level Seattle Center
Mon 11:11:52 PM 44.6953 -120.2525 150° Southeast 525 604 39,000  Level Seattle Center
Mon 11:12:52 PM 44.5708 -120.1522 150° Southeast 524 603 39,000  Level Seattle Center
Mon 11:13:53 PM 44.4486 -120.0519 150° Southeast 517 595 39,000  Level Seattle Center
Mon 11:14:54 PM 44.3239 -119.9519 150° Southeast 517 595 39,000  Level Seattle Center
Mon 11:15:55 PM 44.1756 -119.8319 150° Southeast 515 593 39,000  Level Seattle Center
Mon 11:16:55 PM 44.0511 -119.7356 151° Southeast 517 595 39,000  Level Seattle Center
Mon 11:17:56 PM 43.9294 -119.6356 149° Southeast 508 585 39,000  Level Seattle Center
Mon 11:18:57 PM 43.8111 -119.5267 146° Southeast 513 590 39,000  Level Seattle Center
Mon 11:19:57 PM 43.7019 -119.3950 139° Southeast 520 598 39,000  Level Seattle Center
Mon 11:20:58 PM 43.5919 -119.2656 140° Southeast 520 598 39,000  Level Seattle Center
Mon 11:21:59 PM 43.4806 -119.1386 140° Southeast 520 598 39,000  Level Seattle Center
Mon 11:23:00 PM 43.3694 -119.0094 140° Southeast 524 603 39,000  Level Seattle Center
Mon 11:24:00 PM 43.2497 -118.8753 141° Southeast 522 601 39,000  Level Seattle Center
Mon 11:24:29 PM 43.2131 -118.8328 140° Southeast 525 604 39,000  Level Salt Lake Center
Mon 11:25:30 PM 43.1014 -118.7056 140° Southeast 524 603 39,000  Level Salt Lake Center
Mon 11:26:31 PM 42.9661 -118.5528 140° Southeast 526 605 39,000  Level Salt Lake Center
Mon 11:27:32 PM 42.8550 -118.4281 141° Southeast 520 598 39,000  Level Salt Lake Center
Mon 11:28:34 PM 42.7447 -118.3053 141° Southeast 514 592 39,000  Level Salt Lake Center
Mon 11:29:35 PM 42.6264 -118.1742 141° Southeast 520 598 39,000  Level Salt Lake Center
Mon 11:30:36 PM 42.5136 -118.0467 140° Southeast 545 627 39,000  Level Salt Lake Center
Mon 11:31:37 PM 42.3881 -117.9072 141° Southeast 528 608 39,000  Level Salt Lake Center
Mon 11:32:38 PM 42.2800 -117.7881 141° Southeast 527 606 39,000  Level Salt Lake Center
Mon 11:33:40 PM 42.1681 -117.6706 142° Southeast 523 602 39,000  Level Salt Lake Center
Mon 11:34:41 PM 42.0589 -117.5508 141° Southeast 525 604 39,000  Level Salt Lake Center
Mon 11:35:42 PM 41.9342 -117.4128 141° Southeast 521 600 39,000  Level Salt Lake Center
Mon 11:36:43 PM 41.8275 -117.2972 141° Southeast 514 592 39,000  Level Salt Lake Center
Mon 11:37:44 PM 41.7042 -117.1667 142° Southeast 507 583 39,000  Level Salt Lake Center
Mon 11:38:45 PM 41.5992 -117.0567 142° Southeast 501 577 39,000  Level Salt Lake Center
Mon 11:39:46 PM 41.4936 -116.9447 142° Southeast 504 580 39,000  Level Salt Lake Center
Mon 11:40:47 PM 41.3703 -116.8139 141° Southeast 506 582 39,000  Level Salt Lake Center
Mon 11:41:48 PM 41.2664 -116.7033 141° Southeast 500 575 39,000  Level Salt Lake Center
Mon 11:42:49 PM 41.1639 -116.5950 141° Southeast 493 567 39,000  Level Salt Lake Center
Mon 11:43:50 PM 41.0428 -116.4703 142° Southeast 491 565 39,000  Level Salt Lake Center
Mon 11:44:51 PM 40.9372 -116.3597 142° Southeast 497 572 39,000  Level Salt Lake Center
Mon 11:45:53 PM 40.8333 -116.2536 142° Southeast 494 568 39,000  Level Salt Lake Center
Mon 11:46:54 PM 40.7136 -116.1281 142° Southeast 490 564 39,000  Level Salt Lake Center
Mon 11:47:55 PM 40.6103 -116.0228 142° Southeast 486 559 39,000  Level Salt Lake Center
Mon 11:48:56 PM 40.5067 -115.9189 143° Southeast 487 560 39,000  Level Salt Lake Center
Mon 11:49:57 PM 40.3869 -115.7947 142° Southeast 489 563 39,000  Level Salt Lake Center
Mon 11:50:58 PM 40.2850 -115.6906 142° Southeast 486 559 39,000  Level Salt Lake Center
Mon 11:51:59 PM 40.1825 -115.5869 142° Southeast 484 557 39,000  Level Salt Lake Center
Mon 11:53:00 PM 40.0622 -115.4647 142° Southeast 488 562 39,000  Level Salt Lake Center
Mon 11:54:01 PM 39.9581 -115.3633 143° Southeast 488 562 39,000  Level Salt Lake Center
Mon 11:55:02 PM 39.8544 -115.2592 142° Southeast 490 564 39,000  Level Salt Lake Center
Mon 11:56:03 PM 39.7328 -115.1383 143° Southeast 492 566 39,000  Level Salt Lake Center
Mon 11:57:04 PM 39.6289 -115.0353 143° Southeast 490 564 39,000  Level Salt Lake Center
Mon 11:58:05 PM 39.5250 -114.9333 143° Southeast 489 563 39,000  Level Salt Lake Center
Mon 11:59:06 PM 39.4022 -114.8167 144° Southeast 490 564 39,000  Level Salt Lake Center
Tue 12:00:07 AM 39.2983 -114.7156 143° Southeast 488 562 39,000  Level Salt Lake Center
Tue 12:01:08 AM 39.1939 -114.6158 143° Southeast 486 559 39,000  Level Salt Lake Center
Tue 12:02:09 AM 39.0783 -114.4992 142° Southeast 481 554 39,000  Level Salt Lake Center
Tue 12:03:10 AM 38.9719 -114.3964 143° Southeast 479 551 39,000  Level Salt Lake Center
Tue 12:04:11 AM 38.8661 -114.2944 143° Southeast 477 549 39,000  Level Salt Lake Center
Tue 12:05:12 AM 38.7608 -114.1942 143° Southeast 473 544 39,000  Level Salt Lake Center
Tue 12:06:12 AM 38.6608 -114.0972 143° Southeast 457 526 39,000  Level Salt Lake Center
Tue 12:07:13 AM 38.5558 -113.9997 144° Southeast 464 534 39,000  Level Salt Lake Center
Tue 12:08:14 AM 38.4525 -113.9003 143° Southeast 466 536 39,000  Level Salt Lake Center
Tue 12:09:15 AM 38.3483 -113.8036 144° Southeast 463 533 39,000  Level Salt Lake Center
Tue 12:10:16 AM 38.2456 -113.7075 144° Southeast 461 531 39,000  Level Salt Lake Center
Tue 12:11:17 AM 38.1217 -113.5914 144° Southeast 462 532 39,000  Level Salt Lake Center
Tue 12:12:18 AM 38.0189 -113.4956 144° Southeast 460 529 39,000  Level Salt Lake Center
Tue 12:13:19 AM 37.9139 -113.4000 144° Southeast 465 535 39,000  Level Salt Lake Center
Tue 12:14:20 AM 37.7992 -113.3297 154° Southeast 462 532 39,000  Level Salt Lake Center
Tue 12:15:21 AM 37.6825 -113.2667 157° South 460 529 39,000  Level Salt Lake Center
Tue 12:16:22 AM 37.5672 -113.2019 156° South 460 529 39,000  Level Salt Lake Center
Tue 12:17:23 AM 37.4519 -113.1392 157° South 458 527 39,000  Level Salt Lake Center
Tue 12:18:24 AM 37.3367 -113.0753 156° South 459 528 39,000  Level Salt Lake Center
Tue 12:19:25 AM 37.1981 -112.9989 156° South 458 527 39,000  Level Salt Lake Center
Tue 12:20:26 AM 37.0828 -112.9369 157° South 455 524 39,000  Level Salt Lake Center
Tue 12:20:43 AM 37.0586 -112.9239 157° South 453 521 39,000  Level Los Angeles Center
Tue 12:21:44 AM 36.9450 -112.8608 156° South 448 516 39,000  Level Los Angeles Center
Tue 12:22:45 AM 36.8303 -112.7983 156° South 449 517 39,000 -732 Level Los Angeles Center
Tue 12:23:47 AM 36.7119 -112.7358 157° South 459 528 37,500 -2,634 Descending Los Angeles Center
Tue 12:24:48 AM 36.5692 -112.6583 156° South 466 536 33,600 -2,213 Descending Los Angeles Center
Tue 12:25:49 AM 36.4475 -112.5931 157° South 473 544 33,000 -293 Descending Los Angeles Center
Tue 12:26:51 AM 36.3272 -112.5281 156° South 471 542 33,000 -146 Level Los Angeles Center
Tue 12:27:52 AM 36.2053 -112.4653 157° South 472 543 32,700 -1,230 Descending Los Angeles Center
Tue 12:28:53 AM 36.0839 -112.4022 157° South 472 543 30,500 -1,820 Descending Los Angeles Center
Tue 12:29:54 AM 35.9506 -112.4081 182° South 470 541 29,000 -732 Descending Los Angeles Center
Tue 12:30:56 AM 35.8217 -112.4128 182° South 457 526 29,000  Level Los Angeles Center
Tue 12:31:57 AM 35.6953 -112.4183 182° South 455 524 29,000  Level Los Angeles Center
Tue 12:32:58 AM 35.5922 -112.4233 182° South 460 529 29,000  Level Los Angeles Center
Tue 12:34:00 AM 35.4386 -112.4364 184° South 460 529 29,000  Level Los Angeles Center
Tue 12:34:36 AM 35.3608 -112.4317 177° South 462 532 29,000  Level Albuquerque Center
Tue 12:35:37 AM 35.2358 -112.4033 170° South 458 527 29,000  Level Albuquerque Center
Tue 12:36:38 AM 35.1136 -112.3778 170° South 447 514 29,000 -246 Level Albuquerque Center
Tue 12:37:39 AM 34.9931 -112.3514 170° South 442 509 28,500 -1,488 Descending Albuquerque Center
Tue 12:38:39 AM 34.8531 -112.3211 170° South 430 495 26,000 -1,438 Descending Albuquerque Center
Tue 12:39:40 AM 34.7386 -112.2964 170° South 422 486 25,600 -1,279 Descending Albuquerque Center
Tue 12:40:41 AM 34.6336 -112.2719 169° South 415 478 23,400 -2,164 Descending Albuquerque Center
Tue 12:41:42 AM 34.5247 -112.2483 170° South 404 465 21,200 -1,672 Descending Albuquerque Center
Tue 12:42:43 AM 34.4200 -112.2247 169° South 390 449 20,000 -590 Descending Albuquerque Center
Tue 12:43:44 AM 34.3200 -112.1969 167° South 376 433 20,000 -893 Level Albuquerque Center
Tue 12:44:44 AM 34.2231 -112.1717 168° South 365 420 18,200 -1,884 Descending Albuquerque Center
Tue 12:45:45 AM 34.1283 -112.1478 168° South 350 403 16,200 -1,672 Descending Albuquerque Center
Tue 12:46:46 AM 34.0250 -112.1203 168° South 317 365 14,800 -1,438 Descending Albuquerque Center
Tue 12:47:46 AM 33.9428 -112.0992 168° South 307 353 13,300 -1,488 Descending Albuquerque Center
Tue 12:48:47 AM 33.8625 -112.0789 168° South 298 343 11,800 -1,475 Descending Albuquerque Center
Tue 12:49:48 AM 33.7836 -112.0592 168° South 292 336 10,300 -885 Descending Albuquerque Center
Tue 12:50:49 AM 33.7036 -112.0431 170° South 293 337 10,000 -545 Descending Albuquerque Center
Tue 12:51:49 AM 33.6256 -112.0294 172° South 286 329 9,200 -694 Descending Albuquerque Center
Tue 12:52:50 AM 33.5606 -112.0061 163° South 251 289 8,600 -836 Descending Albuquerque Center
Tue 12:53:51 AM 33.5278 -111.9350 119° Southeast 278 320 7,500 -1,190 Descending Albuquerque Center
Tue 12:54:51 AM 33.5283 -111.8519 90° East 255 293 6,200 -992 Descending Albuquerque Center
Tue 12:55:52 AM 33.4981 -111.8044 127° Southeast 209 241 5,500 -1,033 Descending Albuquerque Center
Tue 12:56:53 AM 33.4572 -111.8264 204° Southwest 163 188 4,100 -1,279 Descending Albuquerque Center
Tue 12:57:54 AM 33.4453 -111.8706 252° West 139 160 2,900 -893 Descending Albuquerque Center
Tue 12:58:54 AM 33.4408 -111.9136 263° West 131 151 2,300 -694 Descending Albuquerque Center
Tue 12:59:55 AM 33.4411 -111.9678 270° West 137 158 1,500 -590 Descending Albuquerque Center
Tue 01:00:56 AM 33.4392 -112.0106 267° West 144 166 1,100 -393 Descending Albuquerque Center

Login

Don't have an account? Register now (free) for customized features, flight alerts, and more!